sensor_id;sensor_type;location;lat;lon;timestamp;P1;durP1;ratioP1;P2;durP2;ratioP2
48751;SDS011;34544;48.836;9.174;2023-04-15T00:01:58;14.45;;;6.25;;
48751;SDS011;34544;48.836;9.174;2023-04-15T00:04:24;13.75;;;5.72;;
48751;SDS011;34544;48.836;9.174;2023-04-15T00:06:51;8.57;;;4.90;;
48751;SDS011;34544;48.836;9.174;2023-04-15T00:09:17;8.73;;;5.07;;
48751;SDS011;34544;48.836;9.174;2023-04-15T00:11:44;8.55;;;5.32;;
48751;SDS011;34544;48.836;9.174;2023-04-15T00:14:11;13.18;;;5.20;;
48751;SDS011;34544;48.836;9.174;2023-04-15T00:16:37;7.57;;;4.25;;
48751;SDS011;34544;48.836;9.174;2023-04-15T00:19:03;11.27;;;5.13;;
48751;SDS011;34544;48.836;9.174;2023-04-15T00:21:29;8.80;;;5.18;;
48751;SDS011;34544;48.836;9.174;2023-04-15T00:23:55;8.50;;;4.80;;
48751;SDS011;34544;48.836;9.174;2023-04-15T00:26:20;8.60;;;4.95;;
48751;SDS011;34544;48.836;9.174;2023-04-15T00:28:48;8.07;;;4.53;;
48751;SDS011;34544;48.836;9.174;2023-04-15T00:31:14;10.32;;;5.13;;
48751;SDS011;34544;48.836;9.174;2023-04-15T00:33:40;18.77;;;5.65;;
48751;SDS011;34544;48.836;9.174;2023-04-15T00:36:06;11.82;;;5.72;;
48751;SDS011;34544;48.836;9.174;2023-04-15T00:38:32;11.00;;;5.47;;
48751;SDS011;34544;48.836;9.174;2023-04-15T00:40:58;15.15;;;5.60;;
48751;SDS011;34544;48.836;9.174;2023-04-15T00:43:24;8.32;;;4.57;;
48751;SDS011;34544;48.836;9.174;2023-04-15T00:45:50;9.30;;;4.55;;
48751;SDS011;34544;48.836;9.174;2023-04-15T00:48:18;11.48;;;5.13;;
48751;SDS011;34544;48.836;9.174;2023-04-15T00:50:45;9.32;;;5.60;;
48751;SDS011;34544;48.836;9.174;2023-04-15T00:53:10;11.10;;;5.68;;
48751;SDS011;34544;48.836;9.174;2023-04-15T00:55:36;8.45;;;4.88;;
48751;SDS011;34544;48.836;9.174;2023-04-15T00:58:02;7.90;;;4.40;;
48751;SDS011;34544;48.836;9.174;2023-04-15T01:00:28;12.02;;;5.40;;
48751;SDS011;34544;48.836;9.174;2023-04-15T01:02:55;7.88;;;5.40;;
48751;SDS011;34544;48.836;9.174;2023-04-15T01:05:20;10.45;;;5.80;;
48751;SDS011;34544;48.836;9.174;2023-04-15T01:07:47;17.35;;;5.78;;
48751;SDS011;34544;48.836;9.174;2023-04-15T01:10:13;6.95;;;4.80;;
48751;SDS011;34544;48.836;9.174;2023-04-15T01:12:40;15.15;;;6.32;;
48751;SDS011;34544;48.836;9.174;2023-04-15T01:15:06;10.70;;;5.57;;
48751;SDS011;34544;48.836;9.174;2023-04-15T01:17:33;12.68;;;6.80;;
48751;SDS011;34544;48.836;9.174;2023-04-15T01:19:59;10.20;;;5.30;;
48751;SDS011;34544;48.836;9.174;2023-04-15T01:22:25;13.57;;;6.30;;
48751;SDS011;34544;48.836;9.174;2023-04-15T01:25:00;11.05;;;5.38;;
48751;SDS011;34544;48.836;9.174;2023-04-15T01:27:30;9.27;;;5.20;;
48751;SDS011;34544;48.836;9.174;2023-04-15T01:29:57;7.68;;;4.63;;
48751;SDS011;34544;48.836;9.174;2023-04-15T01:32:23;13.93;;;5.15;;
48751;SDS011;34544;48.836;9.174;2023-04-15T01:34:50;9.60;;;5.25;;
48751;SDS011;34544;48.836;9.174;2023-04-15T01:37:16;11.10;;;5.18;;
48751;SDS011;34544;48.836;9.174;2023-04-15T01:39:42;7.28;;;5.15;;
48751;SDS011;34544;48.836;9.174;2023-04-15T01:42:08;9.10;;;4.65;;
48751;SDS011;34544;48.836;9.174;2023-04-15T01:44:34;11.52;;;5.15;;
48751;SDS011;34544;48.836;9.174;2023-04-15T01:47:00;7.50;;;4.88;;
48751;SDS011;34544;48.836;9.174;2023-04-15T01:49:26;10.27;;;5.10;;
48751;SDS011;34544;48.836;9.174;2023-04-15T01:51:52;15.18;;;4.97;;
48751;SDS011;34544;48.836;9.174;2023-04-15T01:54:18;11.52;;;5.78;;
48751;SDS011;34544;48.836;9.174;2023-04-15T01:56:44;12.98;;;5.22;;
48751;SDS011;34544;48.836;9.174;2023-04-15T01:59:09;12.20;;;5.47;;
48751;SDS011;34544;48.836;9.174;2023-04-15T02:01:36;13.38;;;4.57;;
48751;SDS011;34544;48.836;9.174;2023-04-15T02:04:02;8.52;;;4.65;;
48751;SDS011;34544;48.836;9.174;2023-04-15T02:06:29;8.90;;;5.05;;
48751;SDS011;34544;48.836;9.174;2023-04-15T02:08:55;7.90;;;4.70;;
48751;SDS011;34544;48.836;9.174;2023-04-15T02:11:23;9.00;;;4.60;;
48751;SDS011;34544;48.836;9.174;2023-04-15T02:13:48;12.18;;;5.25;;
48751;SDS011;34544;48.836;9.174;2023-04-15T02:16:15;7.20;;;5.05;;
48751;SDS011;34544;48.836;9.174;2023-04-15T02:18:45;8.05;;;5.40;;
48751;SDS011;34544;48.836;9.174;2023-04-15T02:21:11;9.95;;;5.45;;
48751;SDS011;34544;48.836;9.174;2023-04-15T02:23:37;8.68;;;5.30;;
48751;SDS011;34544;48.836;9.174;2023-04-15T02:26:03;12.07;;;5.32;;
48751;SDS011;34544;48.836;9.174;2023-04-15T02:28:30;12.98;;;5.40;;
48751;SDS011;34544;48.836;9.174;2023-04-15T02:30:55;10.13;;;5.35;;
48751;SDS011;34544;48.836;9.174;2023-04-15T02:33:23;12.98;;;5.55;;
48751;SDS011;34544;48.836;9.174;2023-04-15T02:35:49;12.20;;;5.72;;
48751;SDS011;34544;48.836;9.174;2023-04-15T02:38:15;9.05;;;6.43;;
48751;SDS011;34544;48.836;9.174;2023-04-15T02:40:42;9.23;;;4.80;;
48751;SDS011;34544;48.836;9.174;2023-04-15T02:43:08;11.48;;;6.13;;
48751;SDS011;34544;48.836;9.174;2023-04-15T02:45:34;7.47;;;5.00;;
48751;SDS011;34544;48.836;9.174;2023-04-15T02:48:01;10.48;;;5.07;;
48751;SDS011;34544;48.836;9.174;2023-04-15T02:50:30;9.30;;;5.43;;
48751;SDS011;34544;48.836;9.174;2023-04-15T02:52:55;9.00;;;4.80;;
48751;SDS011;34544;48.836;9.174;2023-04-15T02:55:22;10.10;;;4.90;;
48751;SDS011;34544;48.836;9.174;2023-04-15T02:57:47;14.52;;;5.25;;
48751;SDS011;34544;48.836;9.174;2023-04-15T03:00:13;15.70;;;4.85;;
48751;SDS011;34544;48.836;9.174;2023-04-15T03:02:41;14.50;;;6.43;;
48751;SDS011;34544;48.836;9.174;2023-04-15T03:05:10;10.45;;;5.00;;
48751;SDS011;34544;48.836;9.174;2023-04-15T03:07:38;7.78;;;5.38;;
48751;SDS011;34544;48.836;9.174;2023-04-15T03:10:05;11.30;;;5.53;;
48751;SDS011;34544;48.836;9.174;2023-04-15T03:12:32;8.38;;;5.40;;
48751;SDS011;34544;48.836;9.174;2023-04-15T03:14:58;10.35;;;5.05;;
48751;SDS011;34544;48.836;9.174;2023-04-15T03:17:32;12.93;;;5.53;;
48751;SDS011;34544;48.836;9.174;2023-04-15T03:19:58;10.20;;;5.38;;
48751;SDS011;34544;48.836;9.174;2023-04-15T03:22:26;12.98;;;5.18;;
48751;SDS011;34544;48.836;9.174;2023-04-15T03:24:53;15.55;;;4.93;;
48751;SDS011;34544;48.836;9.174;2023-04-15T03:27:18;12.68;;;6.00;;
48751;SDS011;34544;48.836;9.174;2023-04-15T03:29:45;9.65;;;5.45;;
48751;SDS011;34544;48.836;9.174;2023-04-15T03:32:13;11.30;;;5.68;;
48751;SDS011;34544;48.836;9.174;2023-04-15T03:34:39;14.38;;;5.78;;
48751;SDS011;34544;48.836;9.174;2023-04-15T03:37:06;11.00;;;4.80;;
48751;SDS011;34544;48.836;9.174;2023-04-15T03:39:32;9.85;;;5.13;;
48751;SDS011;34544;48.836;9.174;2023-04-15T03:41:58;10.65;;;4.72;;
48751;SDS011;34544;48.836;9.174;2023-04-15T03:44:27;14.43;;;5.82;;
48751;SDS011;34544;48.836;9.174;2023-04-15T03:46:52;10.10;;;4.90;;
48751;SDS011;34544;48.836;9.174;2023-04-15T03:49:18;11.60;;;5.07;;
48751;SDS011;34544;48.836;9.174;2023-04-15T03:51:44;14.93;;;6.28;;
48751;SDS011;34544;48.836;9.174;2023-04-15T03:54:10;11.43;;;6.10;;
48751;SDS011;34544;48.836;9.174;2023-04-15T03:56:39;15.00;;;5.65;;
48751;SDS011;34544;48.836;9.174;2023-04-15T03:59:05;14.60;;;7.13;;
48751;SDS011;34544;48.836;9.174;2023-04-15T04:01:30;12.82;;;5.07;;
48751;SDS011;34544;48.836;9.174;2023-04-15T04:03:56;10.23;;;4.68;;
48751;SDS011;34544;48.836;9.174;2023-04-15T04:06:22;9.02;;;4.95;;
48751;SDS011;34544;48.836;9.174;2023-04-15T04:08:47;9.70;;;4.88;;
48751;SDS011;34544;48.836;9.174;2023-04-15T04:11:13;10.77;;;5.75;;
48751;SDS011;34544;48.836;9.174;2023-04-15T04:13:39;7.40;;;4.43;;
48751;SDS011;34544;48.836;9.174;2023-04-15T04:16:05;7.70;;;4.75;;
48751;SDS011;34544;48.836;9.174;2023-04-15T04:18:31;8.18;;;5.03;;
48751;SDS011;34544;48.836;9.174;2023-04-15T04:20:57;9.40;;;5.05;;
48751;SDS011;34544;48.836;9.174;2023-04-15T04:23:23;9.38;;;3.95;;
48751;SDS011;34544;48.836;9.174;2023-04-15T04:25:49;8.10;;;4.97;;
48751;SDS011;34544;48.836;9.174;2023-04-15T04:28:15;9.57;;;4.60;;
48751;SDS011;34544;48.836;9.174;2023-04-15T04:30:40;7.85;;;4.47;;
48751;SDS011;34544;48.836;9.174;2023-04-15T04:33:06;13.48;;;5.70;;
48751;SDS011;34544;48.836;9.174;2023-04-15T04:35:32;11.13;;;5.22;;
48751;SDS011;34544;48.836;9.174;2023-04-15T04:37:59;8.75;;;5.53;;
48751;SDS011;34544;48.836;9.174;2023-04-15T04:40:25;10.93;;;4.85;;
48751;SDS011;34544;48.836;9.174;2023-04-15T04:42:51;11.80;;;5.28;;
48751;SDS011;34544;48.836;9.174;2023-04-15T04:45:17;9.05;;;5.10;;
48751;SDS011;34544;48.836;9.174;2023-04-15T04:47:43;11.13;;;5.03;;
48751;SDS011;34544;48.836;9.174;2023-04-15T04:50:09;15.02;;;4.53;;
48751;SDS011;34544;48.836;9.174;2023-04-15T04:52:35;8.35;;;5.13;;
48751;SDS011;34544;48.836;9.174;2023-04-15T04:55:01;13.35;;;5.18;;
48751;SDS011;34544;48.836;9.174;2023-04-15T04:57:27;8.30;;;4.70;;
48751;SDS011;34544;48.836;9.174;2023-04-15T04:59:52;13.57;;;5.25;;
48751;SDS011;34544;48.836;9.174;2023-04-15T05:02:18;7.05;;;4.63;;
48751;SDS011;34544;48.836;9.174;2023-04-15T05:04:44;8.68;;;5.53;;
48751;SDS011;34544;48.836;9.174;2023-04-15T05:07:09;13.45;;;5.40;;
48751;SDS011;34544;48.836;9.174;2023-04-15T05:09:35;8.13;;;4.95;;
48751;SDS011;34544;48.836;9.174;2023-04-15T05:12:01;12.77;;;5.40;;
48751;SDS011;34544;48.836;9.174;2023-04-15T05:14:30;14.38;;;6.28;;
48751;SDS011;34544;48.836;9.174;2023-04-15T05:16:56;15.73;;;5.60;;
48751;SDS011;34544;48.836;9.174;2023-04-15T05:19:22;8.00;;;5.28;;
48751;SDS011;34544;48.836;9.174;2023-04-15T05:21:47;10.20;;;4.40;;
48751;SDS011;34544;48.836;9.174;2023-04-15T05:24:13;8.02;;;5.13;;
48751;SDS011;34544;48.836;9.174;2023-04-15T05:26:39;7.22;;;4.90;;
48751;SDS011;34544;48.836;9.174;2023-04-15T05:29:05;12.88;;;5.97;;
48751;SDS011;34544;48.836;9.174;2023-04-15T05:31:31;12.90;;;5.32;;
48751;SDS011;34544;48.836;9.174;2023-04-15T05:33:56;7.72;;;5.22;;
48751;SDS011;34544;48.836;9.174;2023-04-15T05:36:22;6.72;;;5.50;;
48751;SDS011;34544;48.836;9.174;2023-04-15T05:38:48;11.77;;;6.57;;
48751;SDS011;34544;48.836;9.174;2023-04-15T05:41:13;13.02;;;5.90;;
48751;SDS011;34544;48.836;9.174;2023-04-15T05:43:40;11.68;;;5.78;;
48751;SDS011;34544;48.836;9.174;2023-04-15T05:46:05;8.35;;;5.70;;
48751;SDS011;34544;48.836;9.174;2023-04-15T05:48:32;10.35;;;6.15;;
48751;SDS011;34544;48.836;9.174;2023-04-15T05:50:58;8.95;;;5.43;;
48751;SDS011;34544;48.836;9.174;2023-04-15T05:53:24;12.40;;;6.75;;
48751;SDS011;34544;48.836;9.174;2023-04-15T05:55:50;11.57;;;6.40;;
48751;SDS011;34544;48.836;9.174;2023-04-15T05:58:16;15.63;;;7.93;;
48751;SDS011;34544;48.836;9.174;2023-04-15T06:00:42;8.43;;;5.40;;
48751;SDS011;34544;48.836;9.174;2023-04-15T06:03:09;11.90;;;6.05;;
48751;SDS011;34544;48.836;9.174;2023-04-15T06:05:35;19.58;;;6.40;;
48751;SDS011;34544;48.836;9.174;2023-04-15T06:08:01;8.75;;;4.70;;
48751;SDS011;34544;48.836;9.174;2023-04-15T06:10:27;13.40;;;5.95;;
48751;SDS011;34544;48.836;9.174;2023-04-15T06:12:52;11.57;;;5.65;;
48751;SDS011;34544;48.836;9.174;2023-04-15T06:15:18;19.75;;;7.75;;
48751;SDS011;34544;48.836;9.174;2023-04-15T06:17:44;15.75;;;7.95;;
48751;SDS011;34544;48.836;9.174;2023-04-15T06:20:10;13.10;;;8.02;;
48751;SDS011;34544;48.836;9.174;2023-04-15T06:22:36;13.10;;;5.88;;
48751;SDS011;34544;48.836;9.174;2023-04-15T06:25:05;12.60;;;5.47;;
48751;SDS011;34544;48.836;9.174;2023-04-15T06:27:32;9.50;;;6.43;;
48751;SDS011;34544;48.836;9.174;2023-04-15T06:29:58;12.68;;;6.45;;
48751;SDS011;34544;48.836;9.174;2023-04-15T06:32:23;12.27;;;6.45;;
48751;SDS011;34544;48.836;9.174;2023-04-15T06:34:49;11.98;;;6.22;;
48751;SDS011;34544;48.836;9.174;2023-04-15T06:37:15;12.50;;;6.82;;
48751;SDS011;34544;48.836;9.174;2023-04-15T06:39:41;11.40;;;6.88;;
48751;SDS011;34544;48.836;9.174;2023-04-15T06:42:08;10.70;;;5.97;;
48751;SDS011;34544;48.836;9.174;2023-04-15T06:44:35;12.90;;;6.32;;
48751;SDS011;34544;48.836;9.174;2023-04-15T06:47:01;14.43;;;6.05;;
48751;SDS011;34544;48.836;9.174;2023-04-15T06:49:27;11.57;;;7.47;;
48751;SDS011;34544;48.836;9.174;2023-04-15T06:51:52;7.70;;;5.53;;
48751;SDS011;34544;48.836;9.174;2023-04-15T06:54:18;10.82;;;6.20;;
48751;SDS011;34544;48.836;9.174;2023-04-15T06:56:44;11.48;;;5.60;;
48751;SDS011;34544;48.836;9.174;2023-04-15T06:59:09;9.95;;;5.90;;
48751;SDS011;34544;48.836;9.174;2023-04-15T07:01:35;11.65;;;5.75;;
48751;SDS011;34544;48.836;9.174;2023-04-15T07:04:01;10.55;;;5.90;;
48751;SDS011;34544;48.836;9.174;2023-04-15T07:06:26;12.00;;;5.50;;
48751;SDS011;34544;48.836;9.174;2023-04-15T07:08:52;9.52;;;5.80;;
48751;SDS011;34544;48.836;9.174;2023-04-15T07:11:18;7.32;;;4.85;;
48751;SDS011;34544;48.836;9.174;2023-04-15T07:13:45;8.15;;;4.82;;
48751;SDS011;34544;48.836;9.174;2023-04-15T07:16:10;8.68;;;4.78;;
48751;SDS011;34544;48.836;9.174;2023-04-15T07:18:36;13.25;;;5.25;;
48751;SDS011;34544;48.836;9.174;2023-04-15T07:21:02;6.93;;;4.75;;
48751;SDS011;34544;48.836;9.174;2023-04-15T07:23:28;11.95;;;5.80;;
48751;SDS011;34544;48.836;9.174;2023-04-15T07:25:54;10.20;;;6.15;;
48751;SDS011;34544;48.836;9.174;2023-04-15T07:28:19;12.55;;;5.63;;
48751;SDS011;34544;48.836;9.174;2023-04-15T07:30:45;17.88;;;6.10;;
48751;SDS011;34544;48.836;9.174;2023-04-15T07:33:11;10.05;;;4.30;;
48751;SDS011;34544;48.836;9.174;2023-04-15T07:35:36;8.70;;;5.03;;
48751;SDS011;34544;48.836;9.174;2023-04-15T07:38:02;15.05;;;4.72;;
48751;SDS011;34544;48.836;9.174;2023-04-15T07:40:28;9.43;;;4.93;;
48751;SDS011;34544;48.836;9.174;2023-04-15T07:42:54;9.95;;;5.68;;
48751;SDS011;34544;48.836;9.174;2023-04-15T07:45:22;7.80;;;4.60;;
48751;SDS011;34544;48.836;9.174;2023-04-15T07:47:48;7.07;;;4.45;;
48751;SDS011;34544;48.836;9.174;2023-04-15T07:50:14;9.70;;;5.63;;
48751;SDS011;34544;48.836;9.174;2023-04-15T07:52:41;9.77;;;4.85;;
48751;SDS011;34544;48.836;9.174;2023-04-15T07:55:08;10.40;;;6.50;;
48751;SDS011;34544;48.836;9.174;2023-04-15T07:57:34;8.93;;;5.63;;
48751;SDS011;34544;48.836;9.174;2023-04-15T08:00:01;9.38;;;4.63;;
48751;SDS011;34544;48.836;9.174;2023-04-15T08:02:37;10.55;;;5.03;;
48751;SDS011;34544;48.836;9.174;2023-04-15T08:05:04;10.88;;;4.65;;
48751;SDS011;34544;48.836;9.174;2023-04-15T08:07:30;10.00;;;4.55;;
48751;SDS011;34544;48.836;9.174;2023-04-15T08:09:55;11.23;;;4.63;;
48751;SDS011;34544;48.836;9.174;2023-04-15T08:12:22;5.38;;;3.90;;
48751;SDS011;34544;48.836;9.174;2023-04-15T08:14:48;9.38;;;4.25;;
48751;SDS011;34544;48.836;9.174;2023-04-15T08:17:17;10.65;;;4.95;;
48751;SDS011;34544;48.836;9.174;2023-04-15T08:19:42;7.47;;;4.10;;
48751;SDS011;34544;48.836;9.174;2023-04-15T08:22:09;7.35;;;4.15;;
48751;SDS011;34544;48.836;9.174;2023-04-15T08:24:36;12.50;;;4.45;;
48751;SDS011;34544;48.836;9.174;2023-04-15T08:27:02;8.00;;;4.30;;
48751;SDS011;34544;48.836;9.174;2023-04-15T08:29:29;6.82;;;4.32;;
48751;SDS011;34544;48.836;9.174;2023-04-15T08:31:58;8.30;;;3.33;;
48751;SDS011;34544;48.836;9.174;2023-04-15T08:34:26;13.18;;;3.78;;
48751;SDS011;34544;48.836;9.174;2023-04-15T08:36:52;10.23;;;3.00;;
48751;SDS011;34544;48.836;9.174;2023-04-15T08:39:18;5.18;;;2.90;;
48751;SDS011;34544;48.836;9.174;2023-04-15T08:41:47;5.78;;;2.70;;
48751;SDS011;34544;48.836;9.174;2023-04-15T08:44:18;12.50;;;2.92;;
48751;SDS011;34544;48.836;9.174;2023-04-15T08:46:45;6.68;;;2.38;;
48751;SDS011;34544;48.836;9.174;2023-04-15T08:49:12;5.13;;;2.10;;
48751;SDS011;34544;48.836;9.174;2023-04-15T08:51:39;7.88;;;3.00;;
48751;SDS011;34544;48.836;9.174;2023-04-15T08:54:05;5.22;;;2.20;;
48751;SDS011;34544;48.836;9.174;2023-04-15T08:56:32;5.07;;;2.50;;
48751;SDS011;34544;48.836;9.174;2023-04-15T08:58:59;6.78;;;2.20;;
48751;SDS011;34544;48.836;9.174;2023-04-15T09:01:25;7.55;;;3.00;;
48751;SDS011;34544;48.836;9.174;2023-04-15T09:03:51;5.65;;;2.50;;
48751;SDS011;34544;48.836;9.174;2023-04-15T09:06:20;3.78;;;1.80;;
48751;SDS011;34544;48.836;9.174;2023-04-15T09:08:47;8.30;;;3.08;;
48751;SDS011;34544;48.836;9.174;2023-04-15T09:11:13;5.72;;;2.28;;
48751;SDS011;34544;48.836;9.174;2023-04-15T09:13:39;4.63;;;2.65;;
48751;SDS011;34544;48.836;9.174;2023-04-15T09:16:05;12.75;;;2.63;;
48751;SDS011;34544;48.836;9.174;2023-04-15T09:18:32;18.23;;;6.55;;
48751;SDS011;34544;48.836;9.174;2023-04-15T09:21:03;3.67;;;2.30;;
48751;SDS011;34544;48.836;9.174;2023-04-15T09:23:35;6.63;;;2.47;;
48751;SDS011;34544;48.836;9.174;2023-04-15T09:26:17;4.10;;;2.38;;
48751;SDS011;34544;48.836;9.174;2023-04-15T09:28:43;8.55;;;3.00;;
48751;SDS011;34544;48.836;9.174;2023-04-15T09:31:09;7.78;;;3.10;;
48751;SDS011;34544;48.836;9.174;2023-04-15T09:33:35;5.50;;;1.80;;
48751;SDS011;34544;48.836;9.174;2023-04-15T09:36:17;3.97;;;1.77;;
48751;SDS011;34544;48.836;9.174;2023-04-15T09:38:56;4.65;;;2.20;;
48751;SDS011;34544;48.836;9.174;2023-04-15T09:41:24;2.95;;;2.00;;
48751;SDS011;34544;48.836;9.174;2023-04-15T09:43:50;2.67;;;2.13;;
48751;SDS011;34544;48.836;9.174;2023-04-15T09:46:16;5.47;;;2.13;;
48751;SDS011;34544;48.836;9.174;2023-04-15T09:48:41;4.30;;;1.90;;
48751;SDS011;34544;48.836;9.174;2023-04-15T09:51:07;4.55;;;2.05;;
48751;SDS011;34544;48.836;9.174;2023-04-15T09:53:33;3.97;;;2.33;;
48751;SDS011;34544;48.836;9.174;2023-04-15T09:56:00;5.30;;;2.08;;
48751;SDS011;34544;48.836;9.174;2023-04-15T09:58:27;5.65;;;2.45;;
48751;SDS011;34544;48.836;9.174;2023-04-15T10:00:55;6.75;;;2.25;;
48751;SDS011;34544;48.836;9.174;2023-04-15T10:03:23;6.85;;;2.25;;
48751;SDS011;34544;48.836;9.174;2023-04-15T10:05:54;2.58;;;1.77;;
48751;SDS011;34544;48.836;9.174;2023-04-15T10:08:22;3.28;;;2.13;;
48751;SDS011;34544;48.836;9.174;2023-04-15T10:10:49;6.97;;;3.08;;
48751;SDS011;34544;48.836;9.174;2023-04-15T10:13:19;5.50;;;2.33;;
48751;SDS011;34544;48.836;9.174;2023-04-15T10:15:55;3.70;;;2.15;;
48751;SDS011;34544;48.836;9.174;2023-04-15T10:18:24;4.32;;;2.10;;
48751;SDS011;34544;48.836;9.174;2023-04-15T10:20:51;6.88;;;2.70;;
48751;SDS011;34544;48.836;9.174;2023-04-15T10:23:18;7.25;;;2.13;;
48751;SDS011;34544;48.836;9.174;2023-04-15T10:25:45;5.22;;;2.40;;
48751;SDS011;34544;48.836;9.174;2023-04-15T10:28:11;4.15;;;2.20;;
48751;SDS011;34544;48.836;9.174;2023-04-15T10:30:38;6.70;;;2.75;;
48751;SDS011;34544;48.836;9.174;2023-04-15T10:33:04;4.03;;;2.40;;
48751;SDS011;34544;48.836;9.174;2023-04-15T10:35:31;4.38;;;2.00;;
48751;SDS011;34544;48.836;9.174;2023-04-15T10:37:58;4.95;;;2.10;;
48751;SDS011;34544;48.836;9.174;2023-04-15T10:42:52;6.88;;;1.95;;
48751;SDS011;34544;48.836;9.174;2023-04-15T10:45:19;5.43;;;2.22;;
48751;SDS011;34544;48.836;9.174;2023-04-15T10:47:45;3.53;;;2.33;;
48751;SDS011;34544;48.836;9.174;2023-04-15T10:50:15;7.53;;;2.28;;
48751;SDS011;34544;48.836;9.174;2023-04-15T10:52:43;6.38;;;2.88;;
48751;SDS011;34544;48.836;9.174;2023-04-15T10:57:36;3.10;;;2.00;;
48751;SDS011;34544;48.836;9.174;2023-04-15T11:00:15;5.53;;;2.55;;
48751;SDS011;34544;48.836;9.174;2023-04-15T11:02:46;5.00;;;2.22;;
48751;SDS011;34544;48.836;9.174;2023-04-15T11:08:06;6.53;;;2.58;;
48751;SDS011;34544;48.836;9.174;2023-04-15T11:13:14;4.10;;;2.40;;
48751;SDS011;34544;48.836;9.174;2023-04-15T11:15:42;7.45;;;2.58;;
48751;SDS011;34544;48.836;9.174;2023-04-15T11:18:14;5.45;;;2.20;;
48751;SDS011;34544;48.836;9.174;2023-04-15T11:20:44;4.85;;;2.53;;
48751;SDS011;34544;48.836;9.174;2023-04-15T11:23:16;7.32;;;2.72;;
48751;SDS011;34544;48.836;9.174;2023-04-15T11:25:53;3.53;;;2.03;;
48751;SDS011;34544;48.836;9.174;2023-04-15T11:28:20;5.15;;;2.22;;
48751;SDS011;34544;48.836;9.174;2023-04-15T11:30:53;6.30;;;2.42;;
48751;SDS011;34544;48.836;9.174;2023-04-15T11:33:19;3.55;;;2.05;;
48751;SDS011;34544;48.836;9.174;2023-04-15T11:35:46;3.72;;;1.77;;
48751;SDS011;34544;48.836;9.174;2023-04-15T11:38:13;7.10;;;2.53;;
48751;SDS011;34544;48.836;9.174;2023-04-15T11:40:40;4.07;;;2.72;;
48751;SDS011;34544;48.836;9.174;2023-04-15T11:43:07;4.43;;;2.83;;
48751;SDS011;34544;48.836;9.174;2023-04-15T11:45:35;5.72;;;3.53;;
48751;SDS011;34544;48.836;9.174;2023-04-15T11:48:04;7.60;;;3.10;;
48751;SDS011;34544;48.836;9.174;2023-04-15T11:50:31;7.95;;;3.40;;
48751;SDS011;34544;48.836;9.174;2023-04-15T11:52:57;4.15;;;2.53;;
48751;SDS011;34544;48.836;9.174;2023-04-15T11:55:25;4.55;;;2.40;;
48751;SDS011;34544;48.836;9.174;2023-04-15T11:58:10;6.05;;;2.20;;
48751;SDS011;34544;48.836;9.174;2023-04-15T12:00:39;3.55;;;2.47;;
48751;SDS011;34544;48.836;9.174;2023-04-15T12:11:46;2.85;;;2.05;;
48751;SDS011;34544;48.836;9.174;2023-04-15T12:17:09;3.75;;;2.65;;
48751;SDS011;34544;48.836;9.174;2023-04-15T12:19:38;4.65;;;2.42;;
48751;SDS011;34544;48.836;9.174;2023-04-15T12:22:13;6.03;;;3.17;;
48751;SDS011;34544;48.836;9.174;2023-04-15T12:24:41;14.45;;;2.88;;
48751;SDS011;34544;48.836;9.174;2023-04-15T12:27:11;9.77;;;3.45;;
48751;SDS011;34544;48.836;9.174;2023-04-15T12:29:38;7.38;;;3.03;;
48751;SDS011;34544;48.836;9.174;2023-04-15T12:32:07;4.60;;;3.13;;
48751;SDS011;34544;48.836;9.174;2023-04-15T12:34:34;5.10;;;3.33;;
48751;SDS011;34544;48.836;9.174;2023-04-15T12:37:01;5.78;;;3.38;;
48751;SDS011;34544;48.836;9.174;2023-04-15T12:39:30;6.22;;;3.17;;
48751;SDS011;34544;48.836;9.174;2023-04-15T12:41:58;7.07;;;3.67;;
48751;SDS011;34544;48.836;9.174;2023-04-15T12:44:25;5.53;;;2.70;;
48751;SDS011;34544;48.836;9.174;2023-04-15T12:46:51;11.70;;;3.35;;
48751;SDS011;34544;48.836;9.174;2023-04-15T12:49:19;3.92;;;2.83;;
48751;SDS011;34544;48.836;9.174;2023-04-15T12:51:49;6.35;;;3.67;;
48751;SDS011;34544;48.836;9.174;2023-04-15T12:54:16;5.50;;;2.70;;
48751;SDS011;34544;48.836;9.174;2023-04-15T12:56:43;4.13;;;2.50;;
48751;SDS011;34544;48.836;9.174;2023-04-15T12:59:11;4.75;;;3.38;;
48751;SDS011;34544;48.836;9.174;2023-04-15T13:01:37;6.03;;;2.58;;
48751;SDS011;34544;48.836;9.174;2023-04-15T13:04:03;3.97;;;3.17;;
48751;SDS011;34544;48.836;9.174;2023-04-15T13:06:29;5.00;;;2.60;;
48751;SDS011;34544;48.836;9.174;2023-04-15T13:08:57;4.43;;;2.40;;
48751;SDS011;34544;48.836;9.174;2023-04-15T13:11:24;2.47;;;1.88;;
48751;SDS011;34544;48.836;9.174;2023-04-15T13:13:50;2.13;;;1.75;;
48751;SDS011;34544;48.836;9.174;2023-04-15T13:16:18;2.97;;;1.77;;
48751;SDS011;34544;48.836;9.174;2023-04-15T13:18:45;2.25;;;1.38;;
48751;SDS011;34544;48.836;9.174;2023-04-15T13:21:12;4.30;;;2.10;;
48751;SDS011;34544;48.836;9.174;2023-04-15T13:23:39;2.35;;;1.70;;
48751;SDS011;34544;48.836;9.174;2023-04-15T13:26:05;2.25;;;1.40;;
48751;SDS011;34544;48.836;9.174;2023-04-15T13:28:31;3.13;;;1.45;;
48751;SDS011;34544;48.836;9.174;2023-04-15T13:30:57;1.20;;;1.02;;
48751;SDS011;34544;48.836;9.174;2023-04-15T13:33:22;2.42;;;1.30;;
48751;SDS011;34544;48.836;9.174;2023-04-15T13:35:48;2.03;;;0.90;;
48751;SDS011;34544;48.836;9.174;2023-04-15T13:38:13;1.52;;;1.00;;
48751;SDS011;34544;48.836;9.174;2023-04-15T13:40:39;1.60;;;0.80;;
48751;SDS011;34544;48.836;9.174;2023-04-15T13:43:05;3.30;;;0.75;;
48751;SDS011;34544;48.836;9.174;2023-04-15T13:45:30;1.10;;;0.98;;
48751;SDS011;34544;48.836;9.174;2023-04-15T13:47:56;1.30;;;0.80;;
48751;SDS011;34544;48.836;9.174;2023-04-15T13:50:22;0.88;;;0.68;;
48751;SDS011;34544;48.836;9.174;2023-04-15T13:52:48;2.60;;;1.17;;
48751;SDS011;34544;48.836;9.174;2023-04-15T13:55:13;1.08;;;0.65;;
48751;SDS011;34544;48.836;9.174;2023-04-15T13:57:39;1.80;;;0.90;;
48751;SDS011;34544;48.836;9.174;2023-04-15T14:00:05;1.70;;;1.10;;
48751;SDS011;34544;48.836;9.174;2023-04-15T14:02:31;0.80;;;0.70;;
48751;SDS011;34544;48.836;9.174;2023-04-15T14:04:57;5.05;;;0.90;;
48751;SDS011;34544;48.836;9.174;2023-04-15T14:07:22;3.95;;;1.20;;
48751;SDS011;34544;48.836;9.174;2023-04-15T14:09:48;1.63;;;0.98;;
48751;SDS011;34544;48.836;9.174;2023-04-15T14:12:14;1.15;;;1.05;;
48751;SDS011;34544;48.836;9.174;2023-04-15T14:14:40;2.70;;;0.98;;
48751;SDS011;34544;48.836;9.174;2023-04-15T14:17:05;1.48;;;0.90;;
48751;SDS011;34544;48.836;9.174;2023-04-15T14:19:31;1.55;;;0.82;;
48751;SDS011;34544;48.836;9.174;2023-04-15T14:21:58;2.25;;;0.77;;
48751;SDS011;34544;48.836;9.174;2023-04-15T14:24:24;1.30;;;0.90;;
48751;SDS011;34544;48.836;9.174;2023-04-15T14:26:50;1.65;;;1.40;;
48751;SDS011;34544;48.836;9.174;2023-04-15T14:29:16;3.20;;;1.27;;
48751;SDS011;34544;48.836;9.174;2023-04-15T14:31:41;1.48;;;1.10;;
48751;SDS011;34544;48.836;9.174;2023-04-15T14:34:09;2.20;;;1.75;;
48751;SDS011;34544;48.836;9.174;2023-04-15T14:36:35;2.03;;;1.08;;
48751;SDS011;34544;48.836;9.174;2023-04-15T14:39:01;3.05;;;0.95;;
48751;SDS011;34544;48.836;9.174;2023-04-15T14:41:28;1.10;;;0.98;;
48751;SDS011;34544;48.836;9.174;2023-04-15T14:43:54;2.30;;;0.90;;
48751;SDS011;34544;48.836;9.174;2023-04-15T14:46:20;4.15;;;1.00;;
48751;SDS011;34544;48.836;9.174;2023-04-15T14:48:46;4.32;;;1.10;;
48751;SDS011;34544;48.836;9.174;2023-04-15T14:51:12;2.90;;;1.20;;
48751;SDS011;34544;48.836;9.174;2023-04-15T14:53:38;1.30;;;1.10;;
48751;SDS011;34544;48.836;9.174;2023-04-15T14:56:04;3.03;;;0.82;;
48751;SDS011;34544;48.836;9.174;2023-04-15T14:58:29;2.97;;;1.52;;
48751;SDS011;34544;48.836;9.174;2023-04-15T15:00:56;3.88;;;1.60;;
48751;SDS011;34544;48.836;9.174;2023-04-15T15:03:22;2.78;;;1.33;;